Time;durP1;ratioP1;P1;durP2;ratioP2;P2;SDS_P1;SDS_P2;PMS_P1;PMS_P2;Temp;Humidity;BMP_temperature;BMP_pressure;BME280_temperature;BME280_humidity;BME280_pressure;Samples;Min_cycle;Max_cycle;Signal;HPM_P1;HPM_P2
2022/08/01 00:00:01;;;;;;;25.92;17.80;;;;;;;18.78;100.00;101510.25;5111216;28;20148;-61
2022/08/01 00:02:27;;;;;;;27.48;18.00;;;;;;;18.78;100.00;101511.09;5110541;28;20419;-61
2022/08/01 00:04:54;;;;;;;27.13;18.33;;;;;;;18.71;100.00;101506.03;5110605;28;20020;-61
2022/08/01 00:07:19;;;;;;;26.30;17.83;;;;;;;18.79;100.00;101520.31;5110658;28;20070;-61
2022/08/01 00:09:44;;;;;;;28.15;18.08;;;;;;;18.78;100.00;101516.69;5110515;28;20031;-61
2022/08/01 00:12:10;;;;;;;29.40;18.73;;;;;;;18.79;100.00;101520.31;5110801;28;20020;-62
2022/08/01 00:14:35;;;;;;;26.30;17.65;;;;;;;18.78;100.00;101516.69;5110643;28;20038;-61
2022/08/01 00:17:00;;;;;;;26.38;17.48;;;;;;;18.76;100.00;101515.38;5110306;28;20023;-60
2022/08/01 00:19:26;;;;;;;26.27;17.17;;;;;;;18.74;100.00;101512.13;5110812;28;20031;-61
2022/08/01 00:21:51;;;;;;;28.27;18.95;;;;;;;18.76;100.00;101523.78;5110776;28;20024;-62
2022/08/01 00:24:16;;;;;;;28.80;19.48;;;;;;;18.77;100.00;101525.44;5111004;28;20039;-61
2022/08/01 00:26:42;;;;;;;26.55;18.90;;;;;;;18.71;100.00;101513.63;5110634;28;20047;-61
2022/08/01 00:29:07;;;;;;;28.83;18.60;;;;;;;18.70;100.00;101515.63;5110158;28;20045;-61
2022/08/01 00:31:32;;;;;;;28.38;18.35;;;;;;;18.74;100.00;101520.53;5110689;28;20023;-61
2022/08/01 00:33:57;;;;;;;27.67;20.00;;;;;;;18.75;100.00;101520.19;5110759;28;20344;-61
2022/08/01 00:36:23;;;;;;;30.52;19.63;;;;;;;18.75;100.00;101527.78;5110670;28;20076;-61
2022/08/01 00:38:48;;;;;;;29.92;19.98;;;;;;;18.71;100.00;101511.66;5110783;28;20103;-60
2022/08/01 00:41:13;;;;;;;31.17;20.73;;;;;;;18.76;100.00;101526.59;5108858;28;20078;-61
2022/08/01 00:43:39;;;;;;;29.35;19.48;;;;;;;18.74;100.00;101532.56;5112504;28;20044;-61
2022/08/01 00:46:04;;;;;;;27.92;18.70;;;;;;;18.78;100.00;101532.69;5114575;28;20351;-61
2022/08/01 00:48:29;;;;;;;30.33;21.77;;;;;;;18.70;100.00;101537.22;5114296;28;20026;-61
2022/08/01 00:50:54;;;;;;;34.20;21.67;;;;;;;18.67;100.00;101532.31;5114700;28;20019;-61
2022/08/01 00:53:20;;;;;;;28.58;18.98;;;;;;;18.69;100.00;101535.59;5114609;28;20324;-60
2022/08/01 00:55:46;;;;;;;28.90;19.60;;;;;;;18.56;100.00;101531.94;5114282;28;20027;-60
2022/08/01 00:58:12;;;;;;;28.02;19.98;;;;;;;18.50;100.00;101539.72;5114386;28;20503;-60
2022/08/01 01:00:37;;;;;;;28.63;19.05;;;;;;;18.47;100.00;101540.41;5114252;28;20044;-60
2022/08/01 01:03:03;;;;;;;26.08;17.95;;;;;;;18.49;100.00;101540.88;5112648;28;20082;-60
2022/08/01 01:05:30;;;;;;;25.85;17.70;;;;;;;18.47;100.00;101543.19;5114314;28;20381;-60
2022/08/01 01:08:04;;;;;;;27.42;18.77;;;;;;;18.42;100.00;101549.00;5113972;28;20028;-60
2022/08/01 01:10:40;;;;;;;27.00;17.85;;;;;;;18.35;100.00;101541.16;5114062;28;20099;-60
2022/08/01 01:13:10;;;;;;;26.15;17.15;;;;;;;18.36;100.00;101534.41;5114102;28;20027;-59
2022/08/01 01:15:39;;;;;;;26.25;17.98;;;;;;;18.34;100.00;101545.13;5113864;28;20459;-60
2022/08/01 01:18:17;;;;;;;26.52;17.08;;;;;;;18.32;100.00;101533.44;5114139;28;20028;-60
2022/08/01 01:20:45;;;;;;;26.25;17.60;;;;;;;18.38;100.00;101543.25;5114035;28;20038;-60
2022/08/01 01:23:49;;;;;;;26.75;16.75;;;;;;;18.35;100.00;101538.38;5114354;28;20406;-60
2022/08/01 01:26:43;;;;;;;25.63;16.95;;;;;;;18.32;100.00;101544.66;5031229;28;20413;-60
2022/08/01 01:29:14;;;;;;;25.60;16.35;;;;;;;18.26;100.00;101531.19;5112762;28;20032;-60
2022/08/01 01:31:46;;;;;;;26.02;17.13;;;;;;;18.22;100.00;101526.28;5114004;28;20034;-59
2022/08/01 01:34:15;;;;;;;25.23;17.05;;;;;;;18.20;100.00;101524.97;5113632;28;20047;-60
2022/08/01 01:36:42;;;;;;;25.52;16.63;;;;;;;18.21;100.00;101529.41;5113732;28;20328;-60
2022/08/01 01:39:07;;;;;;;24.90;16.15;;;;;;;18.26;100.00;101526.41;5113624;28;20031;-60
2022/08/01 01:41:36;;;;;;;26.60;15.85;;;;;;;18.24;100.00;101534.34;5113498;27;20084;-59
2022/08/01 01:44:04;;;;;;;25.17;15.95;;;;;;;18.22;100.00;101526.28;5113290;28;20059;-60
2022/08/01 01:46:31;;;;;;;25.67;16.50;;;;;;;18.25;100.00;101535.97;5113844;28;20027;-60
2022/08/01 01:48:57;;;;;;;26.75;16.70;;;;;;;18.23;100.00;101532.69;5113388;28;20023;-59
2022/08/01 01:51:25;;;;;;;25.15;16.08;;;;;;;18.19;100.00;101531.72;5113611;28;20046;-59
2022/08/01 01:53:53;;;;;;;24.25;16.52;;;;;;;18.11;100.00;101524.22;5112965;27;20028;-60
2022/08/01 01:56:19;;;;;;;24.75;16.38;;;;;;;18.16;100.00;101529.63;5112880;28;20468;-60
2022/08/01 01:58:50;;;;;;;25.98;17.55;;;;;;;18.08;100.00;101520.97;5113329;27;20028;-60
2022/08/01 02:01:17;;;;;;;25.10;17.33;;;;;;;18.14;100.00;101529.94;5113548;28;20020;-60
2022/08/01 02:03:43;;;;;;;24.52;17.17;;;;;;;18.12;100.00;101531.47;5113372;28;20139;-60
2022/08/01 02:06:11;;;;;;;24.65;16.33;;;;;;;18.11;100.00;101530.66;5113509;28;20516;-60
2022/08/01 02:08:39;;;;;;;25.35;17.00;;;;;;;18.13;100.00;101524.72;5113630;28;20054;-60
2022/08/01 02:11:17;;;;;;;25.33;17.23;;;;;;;18.13;100.00;101535.91;5113410;28;20038;-59
2022/08/01 02:13:44;;;;;;;25.60;16.90;;;;;;;18.09;100.00;101524.56;5112799;28;20347;-60
2022/08/01 02:16:13;;;;;;;25.30;16.55;;;;;;;18.10;100.00;101526.22;5113186;28;20023;-60
2022/08/01 02:18:39;;;;;;;25.10;16.55;;;;;;;18.11;100.00;101530.66;5113322;28;20023;-60
2022/08/01 02:21:07;;;;;;;24.70;15.93;;;;;;;18.07;100.00;101526.88;5113043;28;20111;-60
2022/08/01 02:23:36;;;;;;;26.00;17.52;;;;;;;18.07;100.00;101530.53;5113105;28;20052;-59
2022/08/01 02:26:07;;;;;;;24.80;16.35;;;;;;;18.10;100.00;101537.41;5112823;28;20050;-60
2022/08/01 02:28:37;;;;;;;26.48;17.15;;;;;;;18.12;100.00;101531.47;5113131;28;20509;-59
2022/08/01 02:31:11;;;;;;;26.08;16.67;;;;;;;18.06;100.00;101531.69;5113361;28;20115;-60
2022/08/01 02:33:39;;;;;;;27.05;16.70;;;;;;;18.13;100.00;101531.13;5112798;28;20027;-60
2022/08/01 02:36:06;;;;;;;24.45;16.02;;;;;;;18.08;100.00;101529.38;5113032;28;20137;-60
2022/08/01 02:38:35;;;;;;;25.75;16.10;;;;;;;18.06;100.00;101530.84;5112551;28;20130;-60
2022/08/01 02:41:08;;;;;;;26.10;16.67;;;;;;;18.03;100.00;101535.16;5112620;28;20026;-60
2022/08/01 02:43:38;;;;;;;24.73;15.98;;;;;;;18.03;100.00;101539.94;5112760;28;20047;-62
2022/08/01 02:46:05;;;;;;;26.70;17.05;;;;;;;18.02;100.00;101541.91;5112745;28;20032;-62
2022/08/01 02:48:35;;;;;;;27.17;17.00;;;;;;;17.93;100.00;101527.97;5112477;28;20035;-59
2022/08/01 02:51:02;;;;;;;26.15;17.00;;;;;;;18.05;100.00;101538.44;5112477;28;20058;-61
2022/08/01 02:53:31;;;;;;;24.83;16.75;;;;;;;18.05;100.00;101535.63;5112215;28;20030;-59
2022/08/01 02:55:58;;;;;;;24.55;16.63;;;;;;;18.01;100.00;101539.47;5110937;28;20044;-60
2022/08/01 02:58:25;;;;;;;25.88;17.13;;;;;;;18.01;100.00;101533.84;5110803;28;20028;-60
2022/08/01 03:00:52;;;;;;;25.70;16.83;;;;;;;17.99;100.00;101530.56;5112042;28;20470;-60
2022/08/01 03:03:19;;;;;;;25.80;16.50;;;;;;;17.94;100.00;101534.38;5110566;28;20400;-60
2022/08/01 03:05:46;;;;;;;27.00;17.13;;;;;;;17.78;100.00;101515.38;5111725;28;20032;-60
2022/08/01 03:08:13;;;;;;;27.52;17.13;;;;;;;17.79;100.00;101524.59;5112176;28;20327;-60
2022/08/01 03:10:41;;;;;;;26.10;16.83;;;;;;;17.80;100.00;101531.00;5112062;28;20325;-60
2022/08/01 03:13:08;;;;;;;27.20;16.42;;;;;;;17.76;100.00;101528.88;5112076;28;20110;-60
2022/08/01 03:15:38;;;;;;;24.98;16.38;;;;;;;17.71;100.00;101523.47;5112213;28;20047;-60
2022/08/01 03:18:09;;;;;;;24.98;16.23;;;;;;;17.80;100.00;101531.81;5111824;28;20486;-61
2022/08/01 03:20:35;;;;;;;26.25;16.42;;;;;;;17.83;100.00;101535.91;5111677;28;20023;-60
2022/08/01 03:23:06;;;;;;;25.58;16.08;;;;;;;17.77;100.00;101535.28;5112245;28;20111;-60
2022/08/01 03:25:34;;;;;;;26.20;16.42;;;;;;;17.73;100.00;101529.56;5111563;28;20036;-60
2022/08/01 03:28:03;;;;;;;24.70;15.63;;;;;;;17.78;100.00;101536.94;5111422;28;20066;-61
2022/08/01 03:30:30;;;;;;;24.98;15.43;;;;;;;17.74;100.00;101536.78;5111380;28;20055;-60
2022/08/01 03:32:56;;;;;;;26.02;16.73;;;;;;;17.71;100.00;101548.66;5111569;28;20084;-60
2022/08/01 03:35:26;;;;;;;24.58;15.82;;;;;;;17.66;100.00;101548.84;5111467;28;20019;-60
2022/08/01 03:37:54;;;;;;;25.23;16.30;;;;;;;17.66;100.00;101546.06;5111322;28;20023;-60
2022/08/01 03:40:35;;;;;;;26.40;16.77;;;;;;;17.65;100.00;101549.22;5111544;28;20031;-61
2022/08/01 03:43:05;;;;;;;26.92;17.13;;;;;;;17.52;100.00;101548.28;5111653;28;20067;-60
2022/08/01 03:45:36;;;;;;;26.65;17.23;;;;;;;17.48;100.00;101552.91;5109608;28;20223;-61
2022/08/01 03:48:14;;;;;;;24.30;16.27;;;;;;;17.41;100.00;101554.25;5111485;28;20054;-60
2022/08/01 03:50:42;;;;;;;28.25;18.05;;;;;;;17.35;100.00;101554.78;5111425;27;20553;-61
2022/08/01 03:53:09;;;;;;;26.67;17.42;;;;;;;17.27;100.00;101553.66;5111238;28;20051;-60
2022/08/01 03:55:37;;;;;;;25.48;16.70;;;;;;;17.22;100.00;101556.63;5111262;28;20027;-60
2022/08/01 03:58:04;;;;;;;27.83;17.88;;;;;;;17.18;100.00;101556.50;5111273;28;20032;-60
2022/08/01 04:00:30;;;;;;;26.23;17.50;;;;;;;17.17;100.00;101554.00;5111648;28;20027;-60
2022/08/01 04:02:56;;;;;;;27.23;17.08;;;;;;;17.15;100.00;101565.53;5111614;28;20114;-60
2022/08/01 04:05:21;;;;;;;26.30;18.23;;;;;;;17.16;100.00;101553.19;5111726;28;20429;-61
2022/08/01 04:07:55;;;;;;;28.20;18.15;;;;;;;17.18;100.00;101556.50;5111205;28;20118;-60
2022/08/01 04:10:21;;;;;;;28.77;18.42;;;;;;;17.17;100.00;101556.81;5111556;28;20034;-60
2022/08/01 04:12:47;;;;;;;27.08;18.05;;;;;;;17.11;100.00;101543.03;5111144;28;20443;-60
2022/08/01 04:15:12;;;;;;;26.48;17.30;;;;;;;17.20;100.00;101554.16;5111227;28;20139;-60
2022/08/01 04:17:37;;;;;;;25.52;17.45;;;;;;;17.23;100.00;101555.50;5111830;28;20106;-60
2022/08/01 04:20:03;;;;;;;27.55;17.63;;;;;;;17.23;100.00;101552.69;5115330;28;20039;-60
2022/08/01 04:22:30;;;;;;;27.73;17.48;;;;;;;17.22;100.00;101553.84;5115274;28;20114;-60
2022/08/01 04:24:57;;;;;;;26.48;17.83;;;;;;;17.18;100.00;101552.84;5115539;28;20542;-60
2022/08/01 04:27:32;;;;;;;27.35;18.23;;;;;;;17.14;100.00;101556.31;5115063;28;20049;-60
2022/08/01 04:29:59;;;;;;;27.75;19.00;;;;;;;17.12;100.00;101561.44;5114869;28;20042;-60
2022/08/01 04:32:31;;;;;;;27.02;17.58;;;;;;;17.15;100.00;101563.53;5115247;28;20019;-61
2022/08/01 04:34:59;;;;;;;27.92;17.92;;;;;;;17.08;100.00;101551.25;5115121;28;20028;-60
2022/08/01 04:37:25;;;;;;;27.17;18.92;;;;;;;17.11;100.00;101564.53;5115168;28;20062;-60
2022/08/01 04:39:54;;;;;;;25.58;17.42;;;;;;;17.10;100.00;101568.50;5114911;28;20119;-60
2022/08/01 04:42:19;;;;;;;26.85;17.50;;;;;;;17.12;100.00;101564.22;5113356;28;20038;-61
2022/08/01 04:44:45;;;;;;;26.27;16.85;;;;;;;17.07;100.00;101560.78;5114763;28;20093;-60
2022/08/01 04:47:11;;;;;;;25.65;16.27;;;;;;;17.07;100.00;101555.22;5114184;28;20027;-61
2022/08/01 04:49:37;;;;;;;25.35;16.27;;;;;;;17.11;100.00;101570.97;5115020;28;20031;-61
2022/08/01 04:52:03;;;;;;;26.13;16.15;;;;;;;17.10;100.00;101571.28;5114658;28;20073;-61
2022/08/01 04:54:33;;;;;;;26.50;16.10;;;;;;;17.15;100.00;101568.34;5114800;28;20070;-61
2022/08/01 04:56:59;;;;;;;25.88;16.35;;;;;;;17.18;100.00;101570.47;5114902;28;20360;-61
2022/08/01 04:59:41;;;;;;;25.55;15.95;;;;;;;17.16;100.00;101572.78;5114738;28;20431;-61
2022/08/01 05:02:14;;;;;;;27.00;16.70;;;;;;;17.15;100.00;101571.13;5115192;28;20052;-61
2022/08/01 05:04:40;;;;;;;25.85;16.33;;;;;;;17.17;100.00;101585.59;5114613;28;20065;-61
2022/08/01 05:07:07;;;;;;;25.40;16.77;;;;;;;17.18;100.00;101583.63;5114725;28;20102;-60
2022/08/01 05:09:33;;;;;;;26.02;16.42;;;;;;;17.23;100.00;101586.25;5115194;28;20038;-61
2022/08/01 05:11:59;;;;;;;23.55;15.75;;;;;;;17.30;100.00;101586.53;5114991;28;20031;-61
2022/08/01 05:14:31;;;;;;;25.52;16.55;;;;;;;17.34;100.00;101578.31;5114409;28;20151;-61
2022/08/01 05:16:56;;;;;;;26.17;16.77;;;;;;;17.41;100.00;101582.22;5114566;28;20034;-61
2022/08/01 05:19:22;;;;;;;24.73;16.17;;;;;;;17.46;100.00;101584.81;5114000;28;20028;-61
2022/08/01 05:21:47;;;;;;;25.00;15.48;;;;;;;17.61;100.00;101583.44;5114581;28;20027;-60
2022/08/01 05:24:12;;;;;;;26.73;15.75;;;;;;;17.71;100.00;101576.63;5114394;28;20131;-62
2022/08/01 05:26:38;;;;;;;25.13;15.23;;;;;;;17.89;100.00;101588.56;5113615;28;20106;-61
2022/08/01 05:29:04;;;;;;;23.65;14.40;;;;;;;18.02;100.00;101591.50;5112425;28;20440;-60
2022/08/01 05:31:29;;;;;;;23.83;15.02;;;;;;;18.15;100.00;101596.00;5113663;28;20344;-61
2022/08/01 05:33:55;;;;;;;24.20;15.07;;;;;;;18.17;100.00;101592.88;5114003;28;20053;-61
2022/08/01 05:36:20;;;;;;;23.10;14.52;;;;;;;18.21;100.00;101602.22;5113504;28;20340;-61
2022/08/01 05:38:45;;;;;;;24.67;14.77;;;;;;;18.23;100.00;101600.72;5113908;27;20032;-61
2022/08/01 05:41:11;;;;;;;22.83;14.50;;;;;;;18.31;100.00;101607.44;5113853;28;20162;-61
2022/08/01 05:43:36;;;;;;;24.35;14.43;;;;;;;18.37;100.00;101606.06;5113551;28;20347;-61
2022/08/01 05:46:01;;;;;;;24.30;14.95;;;;;;;18.45;99.71;101617.56;5114001;28;20030;-61
2022/08/01 05:48:27;;;;;;;23.58;15.13;;;;;;;18.47;100.00;101613.25;5113630;28;20028;-61
2022/08/01 05:50:53;;;;;;;25.08;15.23;;;;;;;18.50;99.94;101612.56;5113796;28;20046;-61
2022/08/01 05:53:18;;;;;;;23.80;15.30;;;;;;;18.45;99.46;101598.75;5113746;28;20080;-63
2022/08/01 05:55:43;;;;;;;25.02;15.50;;;;;;;18.43;99.43;101608.66;5113601;28;20444;-61
2022/08/01 05:58:09;;;;;;;23.98;15.65;;;;;;;18.39;99.72;101600.13;5113704;28;20039;-61
2022/08/01 06:00:34;;;;;;;24.40;16.23;;;;;;;18.31;100.00;101601.81;5113297;28;20027;-61
2022/08/01 06:02:59;;;;;;;23.83;15.82;;;;;;;18.28;100.00;101604.50;5113324;28;20510;-61
2022/08/01 06:05:25;;;;;;;25.58;16.30;;;;;;;18.21;100.00;101603.06;5113346;28;20034;-61
2022/08/01 06:07:50;;;;;;;24.20;16.05;;;;;;;18.23;100.00;101609.13;5113526;28;20345;-61
2022/08/01 06:10:15;;;;;;;22.42;15.98;;;;;;;18.23;100.00;101611.09;5113690;28;20443;-61
2022/08/01 06:12:41;;;;;;;24.70;15.93;;;;;;;18.25;100.00;101608.78;5113017;28;20019;-61
2022/08/01 06:15:06;;;;;;;24.83;16.10;;;;;;;18.21;100.00;101611.47;5112994;28;20172;-61
2022/08/01 06:17:32;;;;;;;24.55;16.50;;;;;;;18.18;100.00;101609.31;5113273;28;20038;-59
2022/08/01 06:19:57;;;;;;;25.63;16.25;;;;;;;18.15;100.00;101607.19;5113257;28;20028;-60
2022/08/01 06:22:22;;;;;;;24.23;16.15;;;;;;;18.19;100.00;101610.97;5113015;28;20447;-60
2022/08/01 06:24:48;;;;;;;23.60;15.88;;;;;;;18.29;100.00;101612.53;5112833;28;20027;-60
2022/08/01 06:27:13;;;;;;;23.77;16.10;;;;;;;18.36;100.00;101612.84;5112866;28;20064;-60
2022/08/01 06:29:38;;;;;;;22.40;15.75;;;;;;;18.42;100.00;101613.44;5112751;28;20062;-61
2022/08/01 06:32:04;;;;;;;24.08;16.38;;;;;;;18.49;99.51;101616.53;5111297;28;20023;-61
2022/08/01 06:34:29;;;;;;;22.00;15.20;;;;;;;18.54;98.84;101615.50;5112400;28;20020;-60
2022/08/01 06:36:54;;;;;;;22.00;14.95;;;;;;;18.64;98.68;101619.84;5112328;28;20514;-61
2022/08/01 06:39:20;;;;;;;21.98;14.75;;;;;;;18.76;98.14;101619.09;5112745;28;20049;-61
2022/08/01 06:41:48;;;;;;;22.70;15.27;;;;;;;18.97;97.05;101621.91;5112734;28;20398;-62
2022/08/01 06:44:13;;;;;;;21.42;14.43;;;;;;;19.07;94.81;101629.88;5112441;28;20050;-61
2022/08/01 06:46:39;;;;;;;20.23;13.25;;;;;;;19.14;93.06;101627.34;5112728;28;20418;-60
2022/08/01 06:49:04;;;;;;;21.20;13.13;;;;;;;19.15;92.83;101630.94;5112486;28;20134;-60
2022/08/01 06:51:30;;;;;;;20.35;13.18;;;;;;;19.26;92.75;101637.75;5112664;28;20320;-61
2022/08/01 06:53:55;;;;;;;18.83;11.70;;;;;;;19.17;91.33;101623.84;5112381;28;20354;-61
2022/08/01 06:56:21;;;;;;;19.50;11.95;;;;;;;19.23;92.33;101637.63;5112660;28;20333;-60
2022/08/01 06:58:46;;;;;;;20.45;12.93;;;;;;;19.26;92.38;101636.97;5112057;28;20031;-60
2022/08/01 07:01:12;;;;;;;19.20;12.00;;;;;;;19.26;90.46;101631.34;5112323;28;20036;-62
2022/08/01 07:03:37;;;;;;;18.90;12.05;;;;;;;19.39;90.58;101633.00;5112110;28;20073;-60
2022/08/01 07:06:03;;;;;;;19.20;12.52;;;;;;;19.44;90.50;101641.19;5111661;28;20027;-59
2022/08/01 07:08:29;;;;;;;18.23;12.02;;;;;;;19.48;90.31;101642.13;5111705;28;20020;-60
2022/08/01 07:10:55;;;;;;;19.30;11.65;;;;;;;19.49;88.96;101642.97;5111929;28;20035;-60
2022/08/01 07:13:24;;;;;;;18.77;12.02;;;;;;;19.51;89.08;101651.03;5111672;28;20369;-60
2022/08/01 07:15:49;;;;;;;18.65;11.30;;;;;;;19.52;89.03;101644.25;5112061;28;20482;-61
2022/08/01 07:18:15;;;;;;;18.50;11.00;;;;;;;19.53;88.71;101649.50;5111671;28;20032;-60
2022/08/01 07:20:40;;;;;;;19.08;11.55;;;;;;;19.52;89.21;101647.06;5111156;28;20459;-60
2022/08/01 07:23:05;;;;;;;18.73;11.45;;;;;;;19.58;89.75;101637.22;5111953;28;20035;-61
2022/08/01 07:25:31;;;;;;;19.38;11.48;;;;;;;19.60;88.29;101640.50;5111776;28;20107;-61
2022/08/01 07:27:57;;;;;;;19.02;11.57;;;;;;;19.72;87.54;101648.13;5111822;28;20114;-60
2022/08/01 07:30:22;;;;;;;19.70;12.38;;;;;;;19.71;87.02;101644.50;5111899;28;20050;-61
2022/08/01 07:32:47;;;;;;;18.35;11.63;;;;;;;19.80;87.53;101647.19;5111612;28;20036;-60
2022/08/01 07:35:12;;;;;;;18.40;11.77;;;;;;;19.88;88.30;101649.13;5111991;28;20016;-61
2022/08/01 07:37:38;;;;;;;18.35;11.98;;;;;;;19.91;86.29;101651.19;5111819;28;20076;-61
2022/08/01 07:40:05;;;;;;;18.55;11.68;;;;;;;19.74;85.60;101646.59;5111805;28;20028;-61
2022/08/01 07:42:30;;;;;;;19.33;11.32;;;;;;;19.53;85.90;101645.88;5112009;28;20042;-61
2022/08/01 07:44:55;;;;;;;19.20;12.23;;;;;;;19.47;87.10;101650.91;5111623;28;20039;-61
2022/08/01 07:47:25;;;;;;;18.40;12.07;;;;;;;19.39;87.39;101652.63;5111991;28;20035;-61
2022/08/01 07:49:50;;;;;;;18.30;11.45;;;;;;;19.43;87.75;101669.59;5111837;28;20035;-61
2022/08/01 07:52:16;;;;;;;20.08;11.80;;;;;;;19.50;88.22;101661.44;5111665;27;20355;-61
2022/08/01 07:54:41;;;;;;;18.83;12.02;;;;;;;19.70;87.67;101656.91;5111744;28;20402;-60
2022/08/01 07:57:06;;;;;;;20.80;12.18;;;;;;;19.93;86.68;101670.53;5111184;28;20026;-61
2022/08/01 07:59:32;;;;;;;19.15;11.98;;;;;;;20.01;86.47;101665.94;5111177;28;20028;-61
2022/08/01 08:01:58;;;;;;;20.25;12.50;;;;;;;19.90;84.23;101669.22;5111526;28;20335;-60
2022/08/01 08:04:24;;;;;;;19.55;11.98;;;;;;;19.84;85.43;101670.59;5111282;28;20374;-60
2022/08/01 08:06:49;;;;;;;18.70;12.20;;;;;;;19.85;85.61;101669.47;5111448;28;20023;-61
2022/08/01 08:09:15;;;;;;;19.17;11.80;;;;;;;20.10;84.73;101669.44;5111189;28;20073;-61
2022/08/01 08:11:43;;;;;;;20.75;12.40;;;;;;;20.23;83.22;101671.09;5111958;28;20046;-61
2022/08/01 08:14:08;;;;;;;18.33;11.65;;;;;;;20.41;82.69;101657.59;5111148;28;20070;-61
2022/08/01 08:16:33;;;;;;;18.58;11.63;;;;;;;20.60;81.78;101658.13;5111220;28;20051;-60
2022/08/01 08:18:59;;;;;;;22.50;12.18;;;;;;;20.81;80.59;101646.72;5110949;28;20026;-60
2022/08/01 08:21:24;;;;;;;18.23;11.23;;;;;;;21.13;80.04;101653.28;5111319;28;20030;-60
2022/08/01 08:26:33;;;;;;;18.75;12.55;;;;;;;21.10;78.13;101661.63;5110806;28;20123;-61
2022/08/01 08:28:58;;;;;;;18.35;11.80;;;;;;;21.20;77.91;101655.47;5111193;28;20028;-61
2022/08/01 08:31:24;;;;;;;19.38;11.93;;;;;;;21.31;77.27;101653.78;5111016;28;20032;-61
2022/08/01 08:33:49;;;;;;;19.00;12.48;;;;;;;21.43;77.31;101657.69;5111144;28;20423;-61
2022/08/01 08:36:14;;;;;;;18.65;12.98;;;;;;;21.27;75.54;101671.75;5111171;28;20088;-62
2022/08/01 08:38:40;;;;;;;18.55;12.02;;;;;;;21.24;76.12;101655.56;5110798;28;20530;-62
2022/08/01 08:41:05;;;;;;;18.92;12.43;;;;;;;21.23;76.56;101659.56;5110790;28;20467;-62
2022/08/01 08:43:31;;;;;;;19.60;12.68;;;;;;;21.27;77.17;101666.09;5110912;28;20075;-62
2022/08/01 08:45:56;;;;;;;19.15;12.20;;;;;;;21.34;77.28;101667.13;5110933;28;20020;-61
2022/08/01 08:48:23;;;;;;;19.30;12.13;;;;;;;21.48;76.11;101675.13;5110572;28;20023;-62
2022/08/01 08:50:49;;;;;;;19.42;12.20;;;;;;;21.36;74.61;101672.38;5109286;28;20337;-61
2022/08/01 08:53:16;;;;;;;19.95;12.40;;;;;;;21.40;75.31;101670.47;5110806;28;20042;-61
2022/08/01 08:55:42;;;;;;;19.10;12.18;;;;;;;21.56;74.42;101670.50;5110684;28;20096;-61
2022/08/01 08:58:12;;;;;;;17.38;10.70;;;;;;;21.48;73.15;101663.03;5109073;28;20351;-60
2022/08/01 09:00:40;;;;;;;16.77;10.15;;;;;;;21.34;73.21;101660.66;5109293;28;20035;-60
2022/08/01 09:03:05;;;;;;;17.52;10.57;;;;;;;21.33;74.42;101667.47;5110595;28;20106;-62
2022/08/01 09:05:31;;;;;;;16.00;10.60;;;;;;;21.42;74.21;101672.94;5114633;28;20069;-62
2022/08/01 09:07:56;;;;;;;16.95;10.80;;;;;;;21.57;73.53;101671.31;5114418;28;20075;-61
2022/08/01 09:10:21;;;;;;;17.83;11.15;;;;;;;21.84;72.99;101678.06;5114303;28;20106;-61
2022/08/01 09:13:21;;;;;;;18.85;11.85;;;;;;;22.13;74.36;101687.22;5114772;28;20028;-61
2022/08/01 09:15:55;;;;;;;17.15;11.15;;;;;;;22.49;72.93;101682.44;5114327;28;20032;-61
2022/08/01 09:18:29;;;;;;;;;;;;;;;22.59;71.65;101693.16;5115377;28;20047;-62
2022/08/01 09:21:06;;;;;;;;;;;;;;;22.59;71.63;101692.34;5115180;28;19990;-61
2022/08/01 09:23:34;;;;;;;18.33;11.10;;;;;;;22.71;71.31;101682.94;5114452;28;19919;-61
2022/08/01 09:26:00;;;;;;;16.92;10.63;;;;;;;22.69;69.99;101694.59;5115050;28;20031;-61
2022/08/01 09:28:29;;;;;;;18.08;11.52;;;;;;;22.60;68.99;101693.97;5112606;28;20106;-61
2022/08/01 09:30:58;;;;;;;17.55;11.10;;;;;;;22.51;69.14;101699.81;5113756;28;20147;-61
2022/08/01 09:33:24;;;;;;;17.13;11.02;;;;;;;22.38;68.05;101701.13;5112860;28;20019;-61
2022/08/01 09:35:57;;;;;;;17.23;11.00;;;;;;;22.24;68.61;101696.75;5114077;28;20386;-61
2022/08/01 09:38:26;;;;;;;17.95;11.45;;;;;;;22.27;68.94;101690.41;5113748;28;20032;-61
2022/08/01 09:40:58;;;;;;;16.85;11.10;;;;;;;22.37;69.01;101686.19;5113656;27;20028;-62
2022/08/01 09:43:28;;;;;;;16.13;10.30;;;;;;;22.73;67.65;101703.13;5113002;28;20055;-62
2022/08/01 09:45:58;;;;;;;17.17;10.70;;;;;;;22.94;65.92;101699.94;5113586;28;20081;-61
2022/08/01 09:48:23;;;;;;;15.95;10.32;;;;;;;23.12;65.85;101702.31;5113372;28;20030;-61
2022/08/01 09:50:51;;;;;;;15.50;10.18;;;;;;;22.89;63.24;101695.41;5113621;27;20027;-61
2022/08/01 09:53:17;;;;;;;15.68;9.77;;;;;;;22.96;64.72;101703.22;5113395;28;20027;-59
2022/08/01 09:55:44;;;;;;;15.80;10.00;;;;;;;23.09;62.05;101692.59;5113949;28;20028;-61
2022/08/01 09:58:11;;;;;;;14.10;9.95;;;;;;;23.15;64.56;101699.56;5113789;28;20077;-61
2022/08/01 10:00:37;;;;;;;12.43;9.20;;;;;;;23.15;62.49;101698.75;5113572;28;20098;-61
2022/08/01 10:03:25;;;;;;;14.45;9.95;;;;;;;23.38;62.42;101706.50;5113639;27;20024;-61
2022/08/01 10:05:53;;;;;;;15.52;10.10;;;;;;;23.11;63.33;101700.66;5113706;28;20095;-61
2022/08/01 10:08:19;;;;;;;14.57;9.88;;;;;;;22.79;63.67;101714.94;5113521;28;20048;-60
2022/08/01 10:11:10;;;;;;;16.10;10.23;;;;;;;22.58;65.58;101713.28;5112110;28;20024;-62
2022/08/01 10:13:36;;;;;;;16.33;10.27;;;;;;;22.38;65.42;101704.72;5113202;28;20084;-59
2022/08/01 10:16:02;;;;;;;14.45;9.77;;;;;;;22.24;67.26;101710.03;5111997;28;20134;-60
2022/08/01 10:18:32;;;;;;;14.23;9.65;;;;;;;22.17;67.29;101698.59;5113215;28;20055;-60
2022/08/01 10:20:58;;;;;;;13.65;9.27;;;;;;;22.22;66.89;101707.56;5113359;28;20064;-60
2022/08/01 10:23:26;;;;;;;12.68;9.10;;;;;;;22.21;65.88;101696.69;5113095;28;20023;-60
2022/08/01 10:25:54;;;;;;;14.98;9.75;;;;;;;22.40;65.47;101719.31;5113226;27;20443;-60
2022/08/01 10:28:22;;;;;;;14.30;9.75;;;;;;;22.44;65.55;101716.56;5112733;28;20472;-61
2022/08/01 10:30:48;;;;;;;16.13;9.57;;;;;;;22.57;66.15;101717.28;5111667;28;20023;-60
2022/08/01 10:33:14;;;;;;;13.88;9.02;;;;;;;22.70;65.60;101715.13;5113834;28;20034;-60
2022/08/01 10:35:40;;;;;;;13.95;9.75;;;;;;;22.71;65.86;101703.50;5113087;28;20020;-60
2022/08/01 10:38:06;;;;;;;14.50;9.70;;;;;;;22.81;64.74;101710.56;5113187;28;20506;-60
2022/08/01 10:40:32;;;;;;;13.90;9.60;;;;;;;22.97;66.39;101712.47;5114096;28;20031;-60
2022/08/01 10:42:57;;;;;;;13.77;9.27;;;;;;;22.94;64.41;101710.41;5112398;28;20052;-60
2022/08/01 10:45:25;;;;;;;11.45;8.73;;;;;;;22.90;64.22;101719.63;5112495;28;20029;-60
2022/08/01 10:48:03;;;;;;;12.68;9.13;;;;;;;22.84;65.24;101721.09;5112253;27;20027;-60
2022/08/01 10:50:33;;;;;;;13.48;9.40;;;;;;;22.84;63.07;101717.44;5112852;28;20046;-60
2022/08/01 10:53:12;;;;;;;13.45;9.30;;;;;;;22.70;65.57;101703.84;5112121;28;20454;-60
2022/08/01 10:55:51;;;;;;;11.35;9.15;;;;;;;22.74;65.79;101719.66;5112532;28;20020;-60
2022/08/01 10:58:21;;;;;;;15.38;9.48;;;;;;;22.61;65.62;101711.72;5113126;28;20024;-60
2022/08/01 11:00:47;;;;;;;13.38;9.48;;;;;;;22.56;65.00;101722.09;5112383;28;20098;-60
2022/08/01 11:03:12;;;;;;;13.23;9.23;;;;;;;22.14;65.93;101728.31;5112446;28;20159;-60
2022/08/01 11:05:40;;;;;;;12.02;8.98;;;;;;;22.09;67.02;101726.59;5112282;28;20263;-60
2022/08/01 11:08:10;;;;;;;12.38;8.93;;;;;;;22.04;65.82;101740.97;5112339;28;20056;-60
2022/08/01 11:10:42;;;;;;;11.38;8.90;;;;;;;21.76;64.74;101741.03;5112209;28;20024;-60